Prescott Valley, AZ

4:45 AM MST on January 27, 2015 (GMT -0700)
Granville Prescott Valley AZ | Change Station
CLOSE
Current Station
Personal Weather Station
Location: Prescott Valley, AZ
Elevation: 5069 ft
Nearby Weather Stations

Elev 5069 ft 34.60 °N, 112.35 °W | Updated 9 seconds ago

Rain
Rain
44.3 °F
Feels Like 41 °F
N
6.0
Wind Variable Wind from SE
Gusts 6.0 mph

Today
High -- | Low -- °F
--% Chance of Precip.
Yesterday
High -- | Low -- °F
Precip. -- in
7:30 AM 5:53 PM
First Quarter, 53% visible
Pressure 30.25 in
Visibility 4.0 miles
Clouds Few 1200 ft
Scattered Clouds 2100 ft
Overcast 4500 ft
Windchill 41 °F
Dew Point 42 °F
Humidity 93%
Rainfall 0.07 in
Snow Depth Not available.
UV 0 out of 12
Pollen 4.70 out of 12
Air Quality Not available.
Flu Activity Not available.
SPECI KPRC 271133Z AUTO 00000KT 4SM RA BR FEW012 SCT021 OVC045 07/06 A3025 RMK AO2 RAB1059 P0006 T00720061

More Conditions Fewer Conditions

Pressure 30.25 in
Visibility 4.0 miles
Clouds Few 1200 ft
Scattered Clouds 2100 ft
Overcast 4500 ft
Windchill 41 °F
Dew Point 42 °F
Humidity 93%
Rainfall 0.07 in
Snow Depth Not available.
UV 0 out of 12
Pollen 4.70 out of 12
Air Quality Not available.
Flu Activity Not available.
SPECI KPRC 271133Z AUTO 00000KT 4SM RA BR FEW012 SCT021 OVC045 07/06 A3025 RMK AO2 RAB1059 P0006 T00720061

More Conditions Fewer Conditions

10-Day Weather Forecast

Almanac

Astronomy

Jan. 27, 2015 Rise Set
Actual Time
Civil Twilight
Nautical Twilight
Astronomical Twilight
Moon
Length of Visible Light
Length of Day
Tomorrow will be .
, % of the Moon is Illuminated

Today's Extremes

State Highs State Lows

Community

WunderPhotos

Upload Photos

1,790,566 photos uploaded!

WunderBlogs® & News

Nearby

Air Quality

  Air Quality AQ Index Pollutant
Not available.

Snow Depth

Station Depth Elevation

Earthquake Activity

City Distance Mag. Time & Date
Minimum magnitude displayed is 2.5.

Coastal Water Temperatures

Place Temperature

Nearby Weather Stations